createdAt,value
2023-03-17T00:00:24.659Z,100381.00
2023-03-17T00:02:52.461Z,100372.47
2023-03-17T00:05:24.684Z,100367.44
2023-03-17T00:07:54.324Z,100363.13
2023-03-17T00:10:23.845Z,100358.19
2023-03-17T00:12:53.292Z,100345.81
2023-03-17T00:15:22.230Z,100337.78
2023-03-17T00:17:51.597Z,100344.88
2023-03-17T00:20:25.325Z,100360.31
2023-03-17T00:22:55.258Z,100368.47
2023-03-17T00:25:27.258Z,100359.78
2023-03-17T00:27:56.851Z,100361.59
2023-03-17T00:30:29.142Z,100363.38
2023-03-17T00:32:59.630Z,100376.59
2023-03-17T00:35:30.693Z,100377.53
2023-03-17T00:37:59.985Z,100374.06
2023-03-17T00:40:31.720Z,100381.97
2023-03-17T00:43:00.904Z,100377.66
2023-03-17T00:45:29.013Z,100384.72
2023-03-17T00:47:58.965Z,100392.53
2023-03-17T00:50:30.006Z,100386.50
2023-03-17T00:52:59.140Z,100385.56
2023-03-17T00:55:27.553Z,100374.91
2023-03-17T00:57:55.479Z,100377.75
2023-03-17T01:00:31.138Z,100376.31
2023-03-17T01:02:58.910Z,100372.06
2023-03-17T01:05:29.622Z,100386.22
2023-03-17T01:07:58.791Z,100385.50
2023-03-17T01:10:29.868Z,100379.47
2023-03-17T01:13:00.058Z,100379.59
2023-03-17T01:15:31.556Z,100373.47
2023-03-17T01:18:02.586Z,100372.75
2023-03-17T01:20:34.576Z,100379.91
2023-03-17T01:23:02.616Z,100372.25
2023-03-17T01:25:30.874Z,100371.50
2023-03-17T01:28:00.131Z,100355.66
2023-03-17T01:30:31.008Z,100346.00
2023-03-17T01:32:59.891Z,100337.13
2023-03-17T01:35:30.213Z,100332.25
2023-03-17T01:38:00.706Z,100332.00
2023-03-17T01:40:32.247Z,100329.88
2023-03-17T01:43:04.352Z,100330.28
2023-03-17T01:45:51.628Z,100317.72
2023-03-17T01:48:20.768Z,100325.28
2023-03-17T01:50:49.770Z,100328.53
2023-03-17T01:53:21.358Z,100327.34
2023-03-17T01:55:51.179Z,100329.78
2023-03-17T01:58:21.323Z,100333.84
2023-03-17T02:00:50.166Z,100328.59
2023-03-17T02:03:19.734Z,100332.19
2023-03-17T02:05:49.320Z,100336.75
2023-03-17T02:08:19.608Z,100329.88
2023-03-17T02:10:50.476Z,100335.28
2023-03-17T02:13:18.175Z,100332.88
2023-03-17T02:15:54.386Z,100338.38
2023-03-17T02:18:24.585Z,100326.34
2023-03-17T02:21:31.423Z,100320.34
2023-03-17T02:24:01.795Z,100318.78
2023-03-17T02:26:35.591Z,100307.38
2023-03-17T02:29:05.899Z,100303.31
2023-03-17T02:31:34.804Z,100288.53
2023-03-17T02:34:03.599Z,100285.06
2023-03-17T02:36:36.395Z,100282.53
2023-03-17T02:39:04.744Z,100282.88
2023-03-17T02:41:32.480Z,100282.16
2023-03-17T02:44:00.572Z,100275.19
2023-03-17T02:46:29.079Z,100266.00
2023-03-17T02:49:00.707Z,100254.25
2023-03-17T02:51:28.449Z,100249.34
2023-03-17T02:53:57.670Z,100255.97
2023-03-17T02:56:26.105Z,100251.06
2023-03-17T02:58:53.685Z,100251.06
2023-03-17T03:01:22.252Z,100258.97
2023-03-17T03:04:14.334Z,100260.78
2023-03-17T03:06:44.539Z,100270.47
2023-03-17T03:09:14.726Z,100281.97
2023-03-17T03:11:43.682Z,100286.53
2023-03-17T03:14:13.588Z,100281.38
2023-03-17T03:16:43.346Z,100278.81
2023-03-17T03:19:11.078Z,100286.72
2023-03-17T03:21:38.694Z,100280.63
2023-03-17T03:24:07.453Z,100293.09
2023-03-17T03:26:36.969Z,100290.66
2023-03-17T03:29:05.256Z,100289.09
2023-03-17T03:31:32.890Z,100294.72
2023-03-17T03:34:01.080Z,100292.31
2023-03-17T03:36:29.686Z,100290.72
2023-03-17T03:38:58.601Z,100279.47
2023-03-17T03:41:26.231Z,100277.59
2023-03-17T03:43:55.605Z,100279.00
2023-03-17T03:46:23.314Z,100287.22
2023-03-17T03:48:50.949Z,100295.56
2023-03-17T03:51:18.549Z,100302.97
2023-03-17T03:53:48.140Z,100300.69
2023-03-17T03:56:15.989Z,100298.47
2023-03-17T03:58:43.746Z,100291.84
2023-03-17T04:01:13.186Z,100295.75
2023-03-17T04:03:41.241Z,100289.13
2023-03-17T04:06:35.588Z,100277.44
2023-03-17T04:09:05.595Z,100270.91
2023-03-17T04:11:35.048Z,100265.13
2023-03-17T04:14:03.180Z,100266.41
2023-03-17T04:16:32.161Z,100273.03
2023-03-17T04:18:59.960Z,100265.56
2023-03-17T04:21:54.612Z,100266.94
2023-03-17T04:24:22.666Z,100265.59
2023-03-17T04:26:50.276Z,100262.41
2023-03-17T04:29:18.991Z,100253.16
2023-03-17T04:31:49.559Z,100251.78
2023-03-17T04:34:19.725Z,100246.09
2023-03-17T04:36:49.701Z,100259.56
2023-03-17T04:39:18.329Z,100262.59
2023-03-17T04:41:46.251Z,100267.25
2023-03-17T04:44:14.147Z,100264.91
2023-03-17T04:46:44.616Z,100262.59
2023-03-17T04:49:13.669Z,100258.47
2023-03-17T04:51:42.593Z,100252.59
2023-03-17T04:54:10.190Z,100256.16
2023-03-17T04:56:37.909Z,100250.38
2023-03-17T04:59:05.699Z,100250.44
2023-03-17T05:01:35.041Z,100255.91
2023-03-17T05:04:02.664Z,100256.09
2023-03-17T05:06:31.770Z,100253.69
2023-03-17T05:08:59.697Z,100261.69
2023-03-17T05:11:52.996Z,100247.72
2023-03-17T05:14:20.555Z,100245.16
2023-03-17T05:16:50.823Z,100247.72
2023-03-17T05:19:19.097Z,100242.53
2023-03-17T05:21:48.959Z,100239.72
2023-03-17T05:24:17.795Z,100249.28
2023-03-17T05:26:45.967Z,100252.75
2023-03-17T05:29:13.548Z,100248.22
2023-03-17T05:31:42.302Z,100244.34
2023-03-17T05:34:10.148Z,100245.72
2023-03-17T05:36:37.825Z,100241.13
2023-03-17T05:39:11.573Z,100233.25
2023-03-17T05:41:40.897Z,100235.88
2023-03-17T05:44:10.302Z,100243.75
2023-03-17T05:46:37.907Z,100253.44
2023-03-17T05:49:06.049Z,100255.22
2023-03-17T05:51:35.736Z,100254.38
2023-03-17T05:54:05.610Z,100256.25
2023-03-17T05:56:36.596Z,100254.56
2023-03-17T05:59:04.529Z,100242.47
2023-03-17T06:01:32.319Z,100236.16
2023-03-17T06:04:02.610Z,100239.09
2023-03-17T06:06:30.191Z,100245.50
2023-03-17T06:08:58.683Z,100247.50
2023-03-17T06:11:26.598Z,100240.66
2023-03-17T06:13:56.989Z,100245.16
2023-03-17T06:16:24.633Z,100245.38
2023-03-17T06:18:53.676Z,100255.88
2023-03-17T06:21:21.708Z,100258.59
2023-03-17T06:23:50.871Z,100252.22
2023-03-17T06:26:18.524Z,100241.06
2023-03-17T06:28:46.493Z,100244.63
2023-03-17T06:31:16.560Z,100240.19
2023-03-17T06:33:44.146Z,100247.34
2023-03-17T06:36:12.316Z,100252.59
2023-03-17T06:38:40.505Z,100252.72
2023-03-17T06:41:33.597Z,100249.13
2023-03-17T06:44:02.808Z,100250.81
2023-03-17T06:46:32.588Z,100257.75
2023-03-17T06:49:01.606Z,100252.31
2023-03-17T06:51:31.041Z,100247.59
2023-03-17T06:53:59.192Z,100243.81
2023-03-17T06:56:30.570Z,100245.19
2023-03-17T06:59:00.592Z,100245.72
2023-03-17T07:01:28.605Z,100247.09
2023-03-17T07:03:57.576Z,100248.38
2023-03-17T07:06:25.164Z,100248.84
2023-03-17T07:08:52.780Z,100243.06
2023-03-17T07:11:20.602Z,100240.53
2023-03-17T07:13:49.060Z,100245.78
2023-03-17T07:16:20.926Z,100239.88
2023-03-17T07:18:52.719Z,100253.06
2023-03-17T07:21:21.825Z,100246.19
2023-03-17T07:23:49.446Z,100253.13
2023-03-17T07:26:17.082Z,100250.56
2023-03-17T07:28:45.161Z,100247.78
2023-03-17T07:31:14.433Z,100243.72
2023-03-17T07:33:42.698Z,100241.59
2023-03-17T07:36:12.586Z,100239.94
2023-03-17T07:38:41.638Z,100235.22
2023-03-17T07:41:11.635Z,100242.00
2023-03-17T07:43:39.293Z,100233.81
2023-03-17T07:46:08.459Z,100244.91
2023-03-17T07:48:41.991Z,100240.19
2023-03-17T07:51:15.842Z,100232.56
2023-03-17T07:53:46.325Z,100232.44
2023-03-17T07:56:14.582Z,100228.69
2023-03-17T07:58:42.166Z,100221.56
2023-03-17T08:01:10.185Z,100209.47
2023-03-17T08:03:41.148Z,100212.25
2023-03-17T08:06:12.670Z,100223.56
2023-03-17T08:08:50.608Z,100222.34
2023-03-17T08:11:18.829Z,100217.06
2023-03-17T08:13:46.611Z,100219.47
2023-03-17T08:16:14.726Z,100223.78
2023-03-17T08:18:44.586Z,100219.25
2023-03-17T08:21:14.099Z,100215.25
2023-03-17T08:23:44.678Z,100219.81
2023-03-17T08:26:15.855Z,100225.91
2023-03-17T08:28:44.748Z,100218.53
2023-03-17T08:31:38.088Z,100212.31
2023-03-17T08:34:06.670Z,100210.91
2023-03-17T08:36:37.741Z,100207.56
2023-03-17T08:39:06.263Z,100205.63
2023-03-17T08:41:36.770Z,100204.38
2023-03-17T08:44:04.740Z,100200.91
2023-03-17T08:46:33.666Z,100206.28
2023-03-17T08:49:03.195Z,100210.78
2023-03-17T08:51:34.237Z,100215.75
2023-03-17T08:54:06.731Z,100224.38
2023-03-17T08:57:02.680Z,100221.25
2023-03-17T08:59:30.319Z,100219.13
2023-03-17T09:01:58.188Z,100224.44
2023-03-17T09:04:26.525Z,100216.44
2023-03-17T09:07:03.357Z,100215.63
2023-03-17T09:09:32.757Z,100216.34
2023-03-17T09:12:26.133Z,100219.66
2023-03-17T09:14:54.561Z,100215.19
2023-03-17T09:17:23.246Z,100207.31
2023-03-17T09:19:51.122Z,100207.16
2023-03-17T09:22:19.618Z,100210.50
2023-03-17T09:24:48.511Z,100215.69
2023-03-17T09:27:17.642Z,100230.84
2023-03-17T09:29:45.438Z,100228.69
2023-03-17T09:32:13.821Z,100223.13
2023-03-17T09:34:42.157Z,100219.28
2023-03-17T09:37:10.637Z,100224.50
2023-03-17T09:39:38.322Z,100224.16
2023-03-17T09:42:17.035Z,100219.44
2023-03-17T09:45:03.329Z,100214.91
2023-03-17T09:47:52.767Z,100209.69
2023-03-17T09:50:26.058Z,100215.34
2023-03-17T09:52:56.742Z,100220.66
2023-03-17T09:55:53.669Z,100220.00
2023-03-17T09:58:26.981Z,100218.47
2023-03-17T10:00:57.614Z,100220.13
2023-03-17T10:03:27.601Z,100216.09
2023-03-17T10:06:02.082Z,100213.81
2023-03-17T10:08:34.711Z,100215.66
2023-03-17T10:11:10.850Z,100208.25
2023-03-17T10:13:52.121Z,100213.34
2023-03-17T10:16:24.273Z,100196.44
2023-03-17T10:18:56.723Z,100197.34
2023-03-17T10:21:29.430Z,100200.75
2023-03-17T10:23:59.202Z,100199.38
2023-03-17T10:26:33.352Z,100196.63
2023-03-17T10:29:04.138Z,100197.34
2023-03-17T10:31:35.430Z,100189.47
2023-03-17T10:34:14.713Z,100187.50
2023-03-17T10:36:45.481Z,100184.19
2023-03-17T10:39:15.746Z,100173.88
2023-03-17T10:41:57.616Z,100172.31
2023-03-17T10:44:39.210Z,100181.97
2023-03-17T10:47:22.602Z,100180.22
2023-03-17T10:49:51.931Z,100185.31
2023-03-17T10:52:22.588Z,100189.50
2023-03-17T10:54:52.624Z,100191.19
2023-03-17T10:57:21.348Z,100182.78
2023-03-17T10:59:54.428Z,100181.19
2023-03-17T11:02:27.464Z,100187.50
2023-03-17T11:04:59.619Z,100177.28
2023-03-17T11:07:35.601Z,100185.81
2023-03-17T11:10:06.468Z,100182.47
2023-03-17T11:12:39.246Z,100175.81
2023-03-17T11:15:11.968Z,100173.13
2023-03-17T11:17:47.602Z,100173.78
2023-03-17T11:20:30.264Z,100183.25
2023-03-17T11:23:05.493Z,100178.31
2023-03-17T11:25:40.261Z,100179.41
2023-03-17T11:28:19.723Z,100176.56
2023-03-17T11:30:58.099Z,100169.94
2023-03-17T11:33:41.632Z,100167.84
2023-03-17T11:36:20.572Z,100161.06
2023-03-17T11:38:59.978Z,100157.19
2023-03-17T11:41:52.248Z,100143.69
2023-03-17T11:44:52.625Z,100158.28
2023-03-17T11:47:34.631Z,100149.41
2023-03-17T11:50:17.578Z,100147.78
2023-03-17T11:52:59.765Z,100150.94
2023-03-17T11:55:38.702Z,100145.81
2023-03-17T11:58:10.483Z,100154.19
2023-03-17T12:00:42.138Z,100167.03
2023-03-17T12:03:15.762Z,100160.50
2023-03-17T12:05:47.685Z,100158.22
2023-03-17T12:08:18.870Z,100152.25
2023-03-17T12:10:52.630Z,100157.00
2023-03-17T12:13:27.914Z,100150.84
2023-03-17T12:16:05.368Z,100152.00
2023-03-17T12:18:37.376Z,100151.78
2023-03-17T12:21:14.529Z,100152.75
2023-03-17T12:23:48.187Z,100149.75
2023-03-17T12:26:23.678Z,100144.81
2023-03-17T12:28:57.401Z,100147.50
2023-03-17T12:31:32.261Z,100140.47
2023-03-17T12:34:06.354Z,100131.50
2023-03-17T12:36:36.686Z,100132.75
2023-03-17T12:39:10.122Z,100131.81
2023-03-17T12:42:08.763Z,100135.84
2023-03-17T12:44:58.039Z,100138.97
2023-03-17T12:47:48.084Z,100137.81
2023-03-17T12:50:44.736Z,100134.19
2023-03-17T12:53:26.534Z,100122.50
2023-03-17T12:55:56.482Z,100122.72
2023-03-17T12:58:32.258Z,100122.41
2023-03-17T13:01:08.738Z,100119.38
2023-03-17T13:03:46.671Z,100123.09
2023-03-17T13:06:20.723Z,100123.00
2023-03-17T13:08:52.620Z,100126.81
2023-03-17T13:11:29.654Z,100115.47
2023-03-17T13:14:17.622Z,100107.72
2023-03-17T13:16:47.627Z,100109.97
2023-03-17T13:19:19.961Z,100099.19
2023-03-17T13:22:13.892Z,100099.63
2023-03-17T13:24:48.101Z,100096.16
2023-03-17T13:27:36.617Z,100093.06
2023-03-17T13:30:38.674Z,100077.09
2023-03-17T13:33:23.622Z,100076.31
2023-03-17T13:36:10.651Z,100086.19
2023-03-17T13:39:18.176Z,100078.41
2023-03-17T13:42:01.153Z,100070.69
2023-03-17T13:44:43.667Z,100072.97
2023-03-17T13:47:32.554Z,100075.03
2023-03-17T13:50:07.456Z,100060.88
2023-03-17T13:52:41.677Z,100062.53
2023-03-17T13:55:35.721Z,100055.94
2023-03-17T13:58:33.114Z,100057.81
2023-03-17T14:01:07.203Z,100052.03
2023-03-17T14:03:49.694Z,100044.34
2023-03-17T14:06:19.348Z,100052.41
2023-03-17T14:08:49.482Z,100055.53
2023-03-17T14:11:25.813Z,100056.69
2023-03-17T14:14:09.302Z,100059.59
2023-03-17T14:16:44.029Z,100053.88
2023-03-17T14:19:17.484Z,100054.91
2023-03-17T14:21:45.310Z,100052.34
2023-03-17T14:24:21.537Z,100055.84
2023-03-17T14:26:50.233Z,100053.16
2023-03-17T14:29:22.784Z,100053.53
2023-03-17T14:32:04.183Z,100042.75
2023-03-17T14:34:32.238Z,100046.69
2023-03-17T14:37:02.801Z,100046.34
2023-03-17T14:39:30.789Z,100042.97
2023-03-17T14:42:00.382Z,100040.94
2023-03-17T14:44:38.466Z,100039.44
2023-03-17T14:47:14.638Z,100051.88
2023-03-17T14:49:43.402Z,100037.13
2023-03-17T14:52:20.319Z,100046.06
2023-03-17T14:54:52.775Z,100052.25
2023-03-17T14:57:24.558Z,100049.56
2023-03-17T15:00:00.237Z,100048.03
2023-03-17T15:02:35.084Z,100050.09
2023-03-17T15:05:14.629Z,100045.53
2023-03-17T15:08:40.865Z,100048.59
2023-03-17T15:11:18.406Z,100044.69
2023-03-17T15:13:46.527Z,100045.06
2023-03-17T15:16:21.653Z,100033.03
2023-03-17T15:18:53.977Z,100026.66
2023-03-17T15:21:30.654Z,100026.59
2023-03-17T15:24:05.613Z,100025.59
2023-03-17T15:26:38.323Z,100015.47
2023-03-17T15:29:07.641Z,100016.09
2023-03-17T15:31:36.606Z,100015.91
2023-03-17T15:34:05.322Z,100012.78
2023-03-17T15:36:35.630Z,100013.56
2023-03-17T15:39:03.754Z,100018.31
2023-03-17T15:41:32.720Z,100023.69
2023-03-17T15:44:06.306Z,100011.66
2023-03-17T15:46:34.286Z,100026.56
2023-03-17T15:49:03.265Z,100027.34
2023-03-17T15:51:31.107Z,100031.69
2023-03-17T15:53:59.753Z,100027.59
2023-03-17T15:56:29.762Z,100040.72
2023-03-17T15:58:57.373Z,100032.63
2023-03-17T16:01:27.786Z,100030.91
2023-03-17T16:03:55.837Z,100033.59
2023-03-17T16:06:25.450Z,100041.00
2023-03-17T16:08:53.153Z,100044.91
2023-03-17T16:11:27.873Z,100054.78
2023-03-17T16:13:56.758Z,100041.56
2023-03-17T16:16:31.536Z,100033.22
2023-03-17T16:19:00.120Z,100047.22
2023-03-17T16:21:30.999Z,100042.16
2023-03-17T16:23:59.411Z,100043.19
2023-03-17T16:26:27.534Z,100044.22
2023-03-17T16:28:55.641Z,100046.00
2023-03-17T16:31:29.202Z,100049.50
2023-03-17T16:33:57.095Z,100047.97
2023-03-17T16:36:25.811Z,100042.72
2023-03-17T16:38:54.815Z,100033.56
2023-03-17T16:41:25.402Z,100045.72
2023-03-17T16:43:58.736Z,100038.81
2023-03-17T16:46:28.799Z,100051.56
2023-03-17T16:48:56.485Z,100059.19
2023-03-17T16:51:24.747Z,100057.03
2023-03-17T16:53:55.649Z,100061.31
2023-03-17T16:56:28.429Z,100065.56
2023-03-17T16:58:56.194Z,100072.50
2023-03-17T17:01:27.830Z,100072.31
2023-03-17T17:03:56.514Z,100076.31
2023-03-17T17:06:24.868Z,100076.69
2023-03-17T17:08:52.948Z,100078.94
2023-03-17T17:11:21.944Z,100078.78
2023-03-17T17:13:51.526Z,100076.66
2023-03-17T17:16:24.393Z,100066.69
2023-03-17T17:18:52.254Z,100070.94
2023-03-17T17:21:19.861Z,100058.44
2023-03-17T17:23:47.654Z,100066.66
2023-03-17T17:26:15.340Z,100060.19
2023-03-17T17:28:44.308Z,100058.25
2023-03-17T17:31:12.283Z,100054.44
2023-03-17T17:33:40.205Z,100060.81
2023-03-17T17:36:14.395Z,100066.91
2023-03-17T17:38:42.244Z,100062.28
2023-03-17T17:41:11.664Z,100070.84
2023-03-17T17:43:39.410Z,100059.69
2023-03-17T17:46:13.231Z,100071.75
2023-03-17T17:48:41.036Z,100066.94
2023-03-17T17:51:10.665Z,100070.16
2023-03-17T17:53:38.253Z,100081.59
2023-03-17T17:56:06.344Z,100077.13
2023-03-17T17:58:34.275Z,100086.53
2023-03-17T18:01:04.435Z,100087.25
2023-03-17T18:03:33.914Z,100095.34
2023-03-17T18:06:01.964Z,100097.38
2023-03-17T18:08:29.774Z,100098.69
2023-03-17T18:10:57.414Z,100105.59
2023-03-17T18:13:25.035Z,100094.69
2023-03-17T18:15:52.879Z,100102.09
2023-03-17T18:18:20.692Z,100107.00
2023-03-17T18:20:50.809Z,100095.78
2023-03-17T18:23:20.095Z,100084.25
2023-03-17T18:25:47.787Z,100080.44
2023-03-17T18:28:16.657Z,100091.66
2023-03-17T18:30:44.643Z,100082.34
2023-03-17T18:33:17.719Z,100087.88
2023-03-17T18:35:48.764Z,100087.38
2023-03-17T18:38:17.931Z,100092.09
2023-03-17T18:40:46.727Z,100103.94
2023-03-17T18:43:14.371Z,100121.34
2023-03-17T18:45:42.234Z,100128.06
2023-03-17T18:48:09.869Z,100134.56
2023-03-17T18:50:37.420Z,100136.59
2023-03-17T18:53:05.930Z,100139.59
2023-03-17T18:55:34.959Z,100126.22
2023-03-17T18:58:02.540Z,100123.41
2023-03-17T19:00:30.740Z,100119.56
2023-03-17T19:02:58.860Z,100120.59
2023-03-17T19:05:26.593Z,100108.88
2023-03-17T19:07:54.376Z,100106.06
2023-03-17T19:10:22.069Z,100111.41
2023-03-17T19:12:52.080Z,100112.56
2023-03-17T19:15:21.501Z,100125.28
2023-03-17T19:17:50.236Z,100136.16
2023-03-17T19:20:19.677Z,100128.47
2023-03-17T19:22:47.357Z,100117.09
2023-03-17T19:25:16.457Z,100108.91
2023-03-17T19:27:44.327Z,100119.78
2023-03-17T19:30:14.661Z,100110.59
2023-03-17T19:32:42.410Z,100109.94
2023-03-17T19:35:12.954Z,100108.59
2023-03-17T19:37:42.747Z,100112.47
2023-03-17T19:40:13.201Z,100123.78
2023-03-17T19:42:40.911Z,100132.16
2023-03-17T19:45:09.723Z,100128.81
2023-03-17T19:47:38.668Z,100127.34
2023-03-17T19:50:08.212Z,100120.47
2023-03-17T19:52:36.166Z,100113.47
2023-03-17T19:55:05.444Z,100123.16
2023-03-17T19:57:34.741Z,100125.66
2023-03-17T20:00:02.562Z,100117.97
2023-03-17T20:02:38.899Z,100115.66
2023-03-17T20:05:07.734Z,100122.66
2023-03-17T20:07:36.036Z,100123.34
2023-03-17T20:10:04.529Z,100129.84
2023-03-17T20:12:32.633Z,100131.03
2023-03-17T20:15:01.367Z,100139.03
2023-03-17T20:17:29.070Z,100134.19
2023-03-17T20:20:00.656Z,100128.34
2023-03-17T20:22:28.291Z,100134.38
2023-03-17T20:24:56.963Z,100138.84
2023-03-17T20:27:25.208Z,100135.50
2023-03-17T20:29:52.870Z,100140.84
2023-03-17T20:32:21.058Z,100145.19
2023-03-17T20:34:49.008Z,100146.03
2023-03-17T20:37:18.672Z,100149.03
2023-03-17T20:39:46.285Z,100152.69
2023-03-17T20:42:15.099Z,100158.38
2023-03-17T20:44:43.072Z,100155.38
2023-03-17T20:47:11.271Z,100158.69
2023-03-17T20:49:39.178Z,100160.88
2023-03-17T20:52:08.405Z,100153.53
2023-03-17T20:54:38.794Z,100158.19
2023-03-17T20:57:07.674Z,100156.34
2023-03-17T20:59:37.194Z,100158.38
2023-03-17T21:02:05.378Z,100160.50
2023-03-17T21:04:33.151Z,100162.22
2023-03-17T21:07:00.754Z,100158.50
2023-03-17T21:09:28.494Z,100158.69
2023-03-17T21:11:57.644Z,100153.69
2023-03-17T21:14:27.618Z,100157.31
2023-03-17T21:16:55.188Z,100157.50
2023-03-17T21:19:23.441Z,100161.47
2023-03-17T21:21:51.288Z,100162.19
2023-03-17T21:24:28.636Z,100158.50
2023-03-17T21:26:59.522Z,100159.00
2023-03-17T21:29:27.560Z,100163.00
2023-03-17T21:31:56.711Z,100161.31
2023-03-17T21:34:24.901Z,100157.81
2023-03-17T21:36:52.754Z,100164.63
2023-03-17T21:39:21.298Z,100163.97
2023-03-17T21:41:50.836Z,100159.47
2023-03-17T21:44:20.152Z,100160.63
2023-03-17T21:46:49.188Z,100152.94
2023-03-17T21:49:18.643Z,100160.94
2023-03-17T21:51:47.620Z,100153.28
2023-03-17T21:54:15.599Z,100159.59
2023-03-17T21:56:43.554Z,100155.25
2023-03-17T21:59:12.315Z,100155.44
2023-03-17T22:01:41.723Z,100168.94
2023-03-17T22:04:09.830Z,100165.09
2023-03-17T22:06:37.504Z,100168.94
2023-03-17T22:09:06.890Z,100169.59
2023-03-17T22:11:34.914Z,100172.72
2023-03-17T22:14:02.823Z,100176.22
2023-03-17T22:16:31.165Z,100177.41
2023-03-17T22:19:00.575Z,100181.38
2023-03-17T22:21:28.682Z,100179.69
2023-03-17T22:23:56.393Z,100174.38
2023-03-17T22:26:24.056Z,100177.88
2023-03-17T22:28:51.781Z,100178.19
2023-03-17T22:31:22.266Z,100174.19
2023-03-17T22:33:51.181Z,100171.50
2023-03-17T22:36:20.575Z,100174.47
2023-03-17T22:38:48.750Z,100183.66
2023-03-17T22:41:18.693Z,100181.13
2023-03-17T22:43:47.831Z,100190.13
2023-03-17T22:46:16.642Z,100193.47
2023-03-17T22:48:46.008Z,100195.91
2023-03-17T22:51:16.287Z,100195.78
2023-03-17T22:53:46.297Z,100186.75
2023-03-17T22:56:15.585Z,100192.09
2023-03-17T22:58:43.878Z,100186.88
2023-03-17T23:01:13.319Z,100194.69
2023-03-17T23:03:41.832Z,100193.19
2023-03-17T23:06:13.009Z,100197.78
2023-03-17T23:08:42.660Z,100191.13
2023-03-17T23:11:14.433Z,100196.75
2023-03-17T23:13:42.614Z,100198.03
2023-03-17T23:16:10.804Z,100197.22
2023-03-17T23:18:38.496Z,100195.03
2023-03-17T23:21:07.348Z,100206.16
2023-03-17T23:23:35.751Z,100209.13
2023-03-17T23:26:03.557Z,100208.59
2023-03-17T23:28:32.952Z,100206.25
2023-03-17T23:31:02.565Z,100201.38
2023-03-17T23:33:31.693Z,100208.84
2023-03-17T23:35:59.317Z,100209.00
2023-03-17T23:38:27.612Z,100215.47
2023-03-17T23:40:57.424Z,100210.47
2023-03-17T23:43:25.932Z,100213.25
2023-03-17T23:45:54.983Z,100220.41
2023-03-17T23:48:23.100Z,100215.25
2023-03-17T23:50:52.521Z,100222.69
2023-03-17T23:53:20.282Z,100219.38
2023-03-17T23:55:48.810Z,100216.88
2023-03-17T23:58:16.654Z,100227.34
